KWAL/WAL METAR and TAF weather

Enter ICAO airport designator
Station Type Date Time Source
KWAL METAR 2019/04/25 17:51 UTC NOAA

KWAL 251751Z 06015KT 10SM BKN029 20/12 A2988 RMK AO2


Station Type Date Time Source
KWAL Decoded METAR 2019/04/25 17:51 UTC NOAA

WALLOPS FLIGHT FAC AIRPORT , VA, United States (KWAL) 37-56N 075-28W 14M
Apr 25, 2019 - 01:51 PM EDT / 2019.04.25 1751 UTC
Wind: from the ENE (060 degrees) at 17 MPH (15 KT):0
Visibility: 10 mile(s):0
Sky conditions: mostly cloudy
Temperature: 68 F (20 C)
Dew Point: 53 F (12 C)
Relative Humidity: 59%
Pressure (altimeter): 29.88 in. Hg (1011 hPa)
ob: KWAL 251751Z 06015KT 10SM BKN029 20/12 A2988 RMK AO2
cycle: 18

Station Type Date Time Source
KWAL TAF UTC NOAA

Error!

Example: see airport list